Time;durP1;ratioP1;P1;durP2;ratioP2;P2;SDS_P1;SDS_P2;PMS_P1;PMS_P2;Temp;Humidity;BMP_temperature;BMP_pressure;BME280_temperature;BME280_humidity;BME280_pressure;Samples;Min_cycle;Max_cycle;Signal;HPM_P1;HPM_P2
2023/05/31 00:02:16;;;;;;;7.55;3.80;;;11.70;99.90;;;;;;5111109;28;20043;-60
2023/05/31 00:04:41;;;;;;;9.80;3.90;;;11.60;99.90;;;;;;5111391;28;20073;-60
2023/05/31 00:07:07;;;;;;;9.50;4.47;;;11.60;99.90;;;;;;5111845;28;20063;-60
2023/05/31 00:09:34;;;;;;;7.90;3.35;;;11.50;99.90;;;;;;5112617;28;20036;-60
2023/05/31 00:11:59;;;;;;;8.27;3.85;;;11.50;99.90;;;;;;5094165;28;20129;-60
2023/05/31 00:14:25;;;;;;;9.00;3.72;;;11.40;99.90;;;;;;5111697;28;20154;-60
2023/05/31 00:16:51;;;;;;;10.52;3.67;;;11.40;99.90;;;;;;5110984;28;20459;-60
2023/05/31 00:19:17;;;;;;;9.35;3.75;;;11.40;99.90;;;;;;5111503;28;20046;-60
2023/05/31 00:21:45;;;;;;;6.45;3.20;;;11.40;99.90;;;;;;5112147;28;20115;-60
2023/05/31 00:24:11;;;;;;;10.68;4.18;;;11.30;99.90;;;;;;5110997;28;20040;-60
2023/05/31 00:26:37;;;;;;;9.25;3.03;;;11.20;99.90;;;;;;5111039;28;20457;-60
2023/05/31 00:29:02;;;;;;;9.68;3.95;;;11.20;99.90;;;;;;5111470;28;20036;-60
2023/05/31 00:31:28;;;;;;;9.55;4.00;;;11.10;99.90;;;;;;5112197;28;20507;-60
2023/05/31 00:33:54;;;;;;;10.50;4.20;;;11.10;99.90;;;;;;5093250;28;20071;-60
2023/05/31 00:36:19;;;;;;;8.07;3.60;;;11.00;99.90;;;;;;5112107;28;20468;-60
2023/05/31 00:38:45;;;;;;;8.77;3.47;;;10.90;99.90;;;;;;5110686;28;20061;-60
2023/05/31 00:41:11;;;;;;;8.02;4.10;;;10.90;99.90;;;;;;5111242;28;20043;-60
2023/05/31 00:43:37;;;;;;;13.70;5.28;;;10.80;99.90;;;;;;5112033;28;20065;-60
2023/05/31 00:46:04;;;;;;;10.25;4.55;;;10.80;99.90;;;;;;5112438;28;20422;-60
2023/05/31 00:48:30;;;;;;;10.45;4.07;;;10.70;99.90;;;;;;5115333;28;20043;-60
2023/05/31 00:50:56;;;;;;;7.88;3.20;;;10.60;99.90;;;;;;5115871;28;20031;-60
2023/05/31 00:53:22;;;;;;;7.53;3.38;;;10.60;99.90;;;;;;5114712;28;20496;-60
2023/05/31 00:55:50;;;;;;;7.65;4.18;;;10.50;99.90;;;;;;5113408;28;20040;-60
2023/05/31 00:58:16;;;;;;;8.30;3.67;;;10.40;99.90;;;;;;5114693;28;20050;-60
2023/05/31 01:00:43;;;;;;;10.23;4.00;;;10.40;99.90;;;;;;5114484;28;20044;-60
2023/05/31 01:03:08;;;;;;;6.72;3.72;;;10.30;99.90;;;;;;5115099;28;20035;-60
2023/05/31 01:05:35;;;;;;;11.13;4.10;;;10.30;99.90;;;;;;5114632;28;20400;-60
2023/05/31 01:08:02;;;;;;;10.35;4.35;;;10.20;99.90;;;;;;5114484;28;20040;-60
2023/05/31 01:10:28;;;;;;;8.65;3.90;;;10.20;99.90;;;;;;5114867;28;20104;-60
2023/05/31 01:13:25;;;;;;;9.50;4.28;;;10.10;99.90;;;;;;5114365;28;20051;-60
2023/05/31 01:16:05;;;;;;;9.73;4.13;;;10.10;99.90;;;;;;5096295;28;20054;-60
2023/05/31 01:18:49;;;;;;;6.70;3.63;;;10.10;99.90;;;;;;5115129;28;20507;-60
2023/05/31 01:21:19;;;;;;;10.20;4.95;;;10.00;99.90;;;;;;5114444;28;20040;-60
2023/05/31 01:24:05;;;;;;;8.15;4.00;;;10.00;99.90;;;;;;5113267;28;20040;-60
2023/05/31 01:26:44;;;;;;;9.60;3.67;;;9.90;99.90;;;;;;5115129;28;20039;-60
2023/05/31 01:29:16;;;;;;;9.30;4.22;;;9.90;99.90;;;;;;5115230;28;20078;-60
2023/05/31 01:31:45;;;;;;;8.40;4.15;;;9.90;99.90;;;;;;5114436;28;20060;-60
2023/05/31 01:34:11;;;;;;;9.88;5.68;;;9.80;99.90;;;;;;5115204;28;20047;-60
2023/05/31 01:36:37;;;;;;;9.15;4.72;;;9.80;99.90;;;;;;5113576;28;20050;-60
2023/05/31 01:39:04;;;;;;;13.20;5.10;;;9.70;99.90;;;;;;5104637;28;20405;-60
2023/05/31 01:41:35;;;;;;;9.68;4.95;;;9.70;99.90;;;;;;5093507;28;20044;-60
2023/05/31 01:44:02;;;;;;;13.70;5.13;;;9.70;99.90;;;;;;5092455;28;20059;-59
2023/05/31 01:46:28;;;;;;;7.80;4.13;;;9.70;99.90;;;;;;5094433;28;20044;-60
2023/05/31 01:48:54;;;;;;;10.02;4.30;;;9.60;99.90;;;;;;5093336;28;20115;-60
2023/05/31 01:51:21;;;;;;;11.15;4.18;;;9.60;99.90;;;;;;5093620;28;20040;-60
2023/05/31 01:53:47;;;;;;;9.63;5.03;;;9.60;99.90;;;;;;5093121;28;20044;-60
2023/05/31 01:56:13;;;;;;;8.48;5.10;;;9.60;99.90;;;;;;5094408;28;20115;-60
2023/05/31 01:58:41;;;;;;;9.93;4.00;;;9.60;99.90;;;;;;5091426;28;20047;-60
2023/05/31 02:01:12;;;;;;;12.02;4.93;;;9.60;99.90;;;;;;5094530;28;20059;-60
2023/05/31 02:03:41;;;;;;;12.68;5.57;;;9.70;99.90;;;;;;5094167;28;20051;-60
2023/05/31 02:06:06;;;;;;;10.70;5.97;;;9.60;99.90;;;;;;5092445;28;20040;-60
2023/05/31 02:08:32;;;;;;;9.43;5.65;;;9.60;99.90;;;;;;5094311;28;20047;-60
2023/05/31 02:10:58;;;;;;;12.63;5.30;;;9.60;99.90;;;;;;5095245;28;20081;-60
2023/05/31 02:13:27;;;;;;;11.57;5.68;;;9.60;99.90;;;;;;5093153;28;20036;-60
2023/05/31 02:15:57;;;;;;;12.27;6.10;;;9.60;99.90;;;;;;5094018;28;20420;-60
2023/05/31 02:18:26;;;;;;;10.70;6.10;;;9.60;99.90;;;;;;5092666;28;20055;-60
2023/05/31 02:20:52;;;;;;;11.15;5.93;;;9.60;99.90;;;;;;5093193;28;20051;-60
2023/05/31 02:23:19;;;;;;;11.27;5.68;;;9.60;99.90;;;;;;5093836;28;20505;-60
2023/05/31 02:25:46;;;;;;;14.38;5.35;;;9.60;99.90;;;;;;5092533;28;20484;-60
2023/05/31 02:28:12;;;;;;;10.95;5.80;;;9.60;99.90;;;;;;5092040;28;20426;-60
2023/05/31 02:30:38;;;;;;;11.07;5.80;;;9.60;99.90;;;;;;5093756;28;20040;-60
2023/05/31 02:33:04;;;;;;;12.40;6.05;;;9.60;99.90;;;;;;5091836;28;20075;-60
2023/05/31 02:35:30;;;;;;;14.45;5.93;;;9.60;99.90;;;;;;5093978;28;20044;-60
2023/05/31 02:37:56;;;;;;;11.82;5.68;;;9.50;99.90;;;;;;5092560;28;20046;-60
2023/05/31 02:40:22;;;;;;;10.95;5.85;;;9.50;99.90;;;;;;5092592;28;20488;-60
2023/05/31 02:42:49;;;;;;;12.95;6.47;;;9.50;99.90;;;;;;5092407;28;20071;-60
2023/05/31 02:45:15;;;;;;;9.93;5.82;;;9.50;99.90;;;;;;5093136;28;20048;-60
2023/05/31 02:47:40;;;;;;;11.88;6.78;;;9.50;99.90;;;;;;5091377;28;20051;-60
2023/05/31 02:50:07;;;;;;;14.93;6.32;;;9.50;99.90;;;;;;5092447;28;20544;-60
2023/05/31 02:52:34;;;;;;;12.38;6.18;;;9.50;99.90;;;;;;5093704;28;20432;-60
2023/05/31 02:55:00;;;;;;;11.88;5.68;;;9.50;99.90;;;;;;5092307;28;20142;-60
2023/05/31 02:57:25;;;;;;;10.85;5.82;;;9.40;99.90;;;;;;5093197;28;20054;-60
2023/05/31 02:59:55;;;;;;;10.23;5.70;;;9.50;99.90;;;;;;5091929;28;20170;-60
2023/05/31 03:02:21;;;;;;;9.85;5.75;;;9.40;99.90;;;;;;5092163;28;20040;-60
2023/05/31 03:04:48;;;;;;;15.20;6.15;;;9.40;99.90;;;;;;5092025;28;20040;-60
2023/05/31 03:07:14;;;;;;;11.60;6.35;;;9.40;99.90;;;;;;5091969;28;20063;-59
2023/05/31 03:09:39;;;;;;;11.27;5.97;;;9.40;99.90;;;;;;5090759;28;20044;-60
2023/05/31 03:12:06;;;;;;;13.63;6.18;;;9.30;99.90;;;;;;5093140;28;20519;-60
2023/05/31 03:14:32;;;;;;;11.98;6.38;;;9.30;99.90;;;;;;5092162;28;20451;-60
2023/05/31 03:16:57;;;;;;;10.20;5.57;;;9.20;99.90;;;;;;5091999;28;20035;-60
2023/05/31 03:19:23;;;;;;;10.05;5.13;;;9.20;99.90;;;;;;5092604;28;20492;-60
2023/05/31 03:21:49;;;;;;;11.88;6.40;;;9.20;99.90;;;;;;5092841;28;20040;-60
2023/05/31 03:24:14;;;;;;;9.88;5.80;;;9.20;99.90;;;;;;5090747;28;20463;-60
2023/05/31 03:26:40;;;;;;;10.55;6.25;;;9.20;99.90;;;;;;5092682;28;20038;-60
2023/05/31 03:29:06;;;;;;;10.90;4.75;;;9.10;99.90;;;;;;5092842;28;20438;-60
2023/05/31 03:31:32;;;;;;;11.57;5.50;;;9.10;99.90;;;;;;5092031;28;20390;-60
2023/05/31 03:33:58;;;;;;;10.48;5.90;;;9.00;99.90;;;;;;5092707;28;20036;-60
2023/05/31 03:36:24;;;;;;;8.52;4.55;;;9.00;99.90;;;;;;5091771;28;20036;-60
2023/05/31 03:38:50;;;;;;;11.60;6.35;;;9.00;99.90;;;;;;5092399;28;20047;-60
2023/05/31 03:41:16;;;;;;;8.07;5.13;;;9.00;99.90;;;;;;5091219;28;20048;-60
2023/05/31 03:43:42;;;;;;;10.85;5.65;;;9.00;99.90;;;;;;5091472;28;20489;-60
2023/05/31 03:46:07;;;;;;;10.43;5.30;;;9.00;99.90;;;;;;5091191;28;20075;-60
2023/05/31 03:48:33;;;;;;;11.63;6.15;;;9.00;99.90;;;;;;5091376;28;20039;-60
2023/05/31 03:50:58;;;;;;;9.77;5.30;;;9.00;99.90;;;;;;5090382;28;20040;-60
2023/05/31 03:53:25;;;;;;;12.15;6.40;;;9.00;99.90;;;;;;5092134;28;20040;-60
2023/05/31 03:55:51;;;;;;;8.40;4.85;;;9.00;99.90;;;;;;5090870;28;20051;-59
2023/05/31 03:58:17;;;;;;;10.25;5.18;;;9.00;99.90;;;;;;5090177;28;20424;-60
2023/05/31 04:00:43;;;;;;;8.38;4.70;;;9.10;99.90;;;;;;5090789;28;20047;-60
2023/05/31 04:03:11;;;;;;;11.73;4.90;;;9.10;99.90;;;;;;5090866;28;20040;-60
2023/05/31 04:05:38;;;;;;;12.05;5.38;;;9.20;99.90;;;;;;5091435;28;20035;-60
2023/05/31 04:08:04;;;;;;;10.90;4.47;;;9.20;99.90;;;;;;5092375;28;20052;-62
2023/05/31 04:10:31;;;;;;;8.10;4.20;;;9.20;99.90;;;;;;5091928;28;20094;-62
2023/05/31 04:12:56;;;;;;;9.80;5.57;;;9.20;99.90;;;;;;5091207;28;20055;-62
2023/05/31 04:15:22;;;;;;;9.82;4.78;;;9.30;99.90;;;;;;5090708;28;20044;-62
2023/05/31 04:17:48;;;;;;;9.20;4.95;;;9.30;99.90;;;;;;5092184;28;20036;-62
2023/05/31 04:20:14;;;;;;;9.90;4.13;;;9.30;99.90;;;;;;5091120;28;20069;-62
2023/05/31 04:22:39;;;;;;;9.63;4.70;;;9.40;99.90;;;;;;5094603;28;20081;-62
2023/05/31 04:25:05;;;;;;;10.55;4.57;;;9.40;99.90;;;;;;5096359;28;20042;-62
2023/05/31 04:27:32;;;;;;;10.82;4.97;;;9.50;99.90;;;;;;5094086;28;20430;-62
2023/05/31 04:29:58;;;;;;;8.65;4.45;;;9.60;99.90;;;;;;5096246;28;20052;-62
2023/05/31 04:32:27;;;;;;;9.40;5.65;;;9.60;99.90;;;;;;5094928;28;20044;-62
2023/05/31 04:34:57;;;;;;;10.32;4.70;;;9.70;99.90;;;;;;5095891;28;20040;-60
2023/05/31 04:37:28;;;;;;;9.88;5.60;;;9.70;99.90;;;;;;5095944;28;20118;-60
2023/05/31 04:39:53;;;;;;;9.38;5.50;;;9.80;99.90;;;;;;5093910;28;20032;-60
2023/05/31 04:42:19;;;;;;;10.35;5.43;;;9.90;99.90;;;;;;5104246;28;20400;-60
2023/05/31 04:44:45;;;;;;;11.95;5.38;;;10.00;99.90;;;;;;5114688;28;20090;-60
2023/05/31 04:47:12;;;;;;;13.57;5.95;;;10.10;99.90;;;;;;5115400;28;20112;-60
2023/05/31 04:49:37;;;;;;;14.55;6.25;;;10.20;99.90;;;;;;5115868;28;20043;-60
2023/05/31 04:52:03;;;;;;;11.93;6.25;;;10.30;99.90;;;;;;5116187;28;20114;-60
2023/05/31 04:54:29;;;;;;;11.38;6.78;;;10.30;99.90;;;;;;5113961;28;20090;-60
2023/05/31 04:56:55;;;;;;;13.23;5.90;;;10.40;99.90;;;;;;5115061;27;20484;-61
2023/05/31 04:59:21;;;;;;;12.35;6.50;;;10.50;99.90;;;;;;5115864;27;20050;-60
2023/05/31 05:01:47;;;;;;;13.35;6.30;;;10.70;99.90;;;;;;5111714;28;20032;-61
2023/05/31 05:04:13;;;;;;;12.13;7.00;;;10.80;99.90;;;;;;5115916;28;20057;-60
2023/05/31 05:06:41;;;;;;;10.60;6.32;;;10.90;99.90;;;;;;5115733;28;20114;-61
2023/05/31 05:09:06;;;;;;;14.98;7.38;;;11.10;99.90;;;;;;5115284;28;20111;-60
2023/05/31 05:11:32;;;;;;;18.58;7.03;;;11.20;99.90;;;;;;5115632;28;20063;-61
2023/05/31 05:13:58;;;;;;;18.77;6.43;;;11.40;99.90;;;;;;5097350;28;20114;-61
2023/05/31 05:16:24;;;;;;;14.77;7.28;;;11.60;99.90;;;;;;5114947;28;20039;-61
2023/05/31 05:18:50;;;;;;;13.90;6.70;;;11.70;99.90;;;;;;5114175;28;20385;-61
2023/05/31 05:21:15;;;;;;;12.77;6.40;;;11.80;99.90;;;;;;5114158;28;20043;-60
2023/05/31 05:23:42;;;;;;;16.17;7.00;;;12.00;99.90;;;;;;5114734;28;20028;-60
2023/05/31 05:26:08;;;;;;;14.77;7.18;;;12.20;99.90;;;;;;5115548;28;20077;-60
2023/05/31 05:28:34;;;;;;;13.57;7.78;;;12.30;99.90;;;;;;5115840;28;20070;-60
2023/05/31 05:30:59;;;;;;;13.02;7.05;;;12.40;99.90;;;;;;5112921;28;20076;-60
2023/05/31 05:33:26;;;;;;;16.38;7.25;;;12.60;99.90;;;;;;5113932;28;20032;-60
2023/05/31 05:35:51;;;;;;;17.40;7.65;;;12.70;99.90;;;;;;5112904;28;20043;-60
2023/05/31 05:38:17;;;;;;;13.43;7.18;;;12.80;99.90;;;;;;5115132;28;20042;-61
2023/05/31 05:40:43;;;;;;;17.42;7.40;;;13.00;99.90;;;;;;5114948;28;20447;-61
2023/05/31 05:43:08;;;;;;;13.80;6.55;;;13.10;99.90;;;;;;5113254;28;20049;-61
2023/05/31 05:45:34;;;;;;;12.25;7.35;;;13.20;99.90;;;;;;5113915;28;20047;-61
2023/05/31 05:48:00;;;;;;;13.20;5.70;;;13.30;99.90;;;;;;5115084;28;20075;-60
2023/05/31 05:50:26;;;;;;;15.05;6.90;;;13.40;99.90;;;;;;5114357;28;20042;-60
2023/05/31 05:52:52;;;;;;;15.18;7.53;;;13.40;99.90;;;;;;5113485;28;20043;-61
2023/05/31 05:55:19;;;;;;;14.45;5.82;;;13.50;99.90;;;;;;5113758;28;20117;-60
2023/05/31 05:57:44;;;;;;;10.57;5.90;;;13.60;99.90;;;;;;5112654;28;20047;-61
2023/05/31 06:00:11;;;;;;;15.65;6.72;;;13.70;99.90;;;;;;5096529;28;20476;-61
2023/05/31 06:02:37;;;;;;;11.23;6.00;;;13.80;99.90;;;;;;5113489;28;20078;-61
2023/05/31 06:05:04;;;;;;;10.90;6.15;;;13.80;99.90;;;;;;5112876;28;20036;-60
2023/05/31 06:07:30;;;;;;;11.88;6.50;;;13.90;99.90;;;;;;5114501;28;20043;-60
2023/05/31 06:09:56;;;;;;;13.32;6.35;;;14.00;99.90;;;;;;5113464;28;20039;-60
2023/05/31 06:12:22;;;;;;;10.30;5.80;;;14.10;99.90;;;;;;5113881;28;20077;-60
2023/05/31 06:14:48;;;;;;;9.98;5.25;;;14.10;99.90;;;;;;5114582;28;20152;-61
2023/05/31 06:17:14;;;;;;;9.85;6.25;;;14.20;99.90;;;;;;5113153;28;20156;-61
2023/05/31 06:19:40;;;;;;;11.82;6.10;;;14.20;99.90;;;;;;5112469;28;20040;-60
2023/05/31 06:22:06;;;;;;;12.70;5.38;;;14.30;99.90;;;;;;5096364;28;20061;-61
2023/05/31 06:24:32;;;;;;;13.75;6.30;;;14.30;99.90;;;;;;5114209;28;20039;-61
2023/05/31 06:26:57;;;;;;;13.25;6.43;;;14.40;99.90;;;;;;5095434;28;20043;-60
2023/05/31 06:29:23;;;;;;;12.40;6.15;;;14.40;99.90;;;;;;5092657;28;20043;-61
2023/05/31 06:31:49;;;;;;;13.38;5.70;;;14.50;99.90;;;;;;5093775;28;20039;-61
2023/05/31 06:34:15;;;;;;;16.58;5.25;;;14.60;99.90;;;;;;5074805;28;20404;-61
2023/05/31 06:36:42;;;;;;;11.43;5.40;;;14.60;99.90;;;;;;5093638;28;20035;-61
2023/05/31 06:39:07;;;;;;;13.70;5.85;;;14.70;99.90;;;;;;5093073;28;20044;-61
2023/05/31 06:41:34;;;;;;;12.48;5.63;;;14.80;99.90;;;;;;5092552;28;20036;-61
2023/05/31 06:44:01;;;;;;;11.35;5.45;;;14.80;99.90;;;;;;5091880;28;20400;-61
2023/05/31 06:46:28;;;;;;;12.85;5.60;;;14.90;99.90;;;;;;5092908;28;20047;-61
2023/05/31 06:48:53;;;;;;;15.40;5.00;;;15.00;99.90;;;;;;5112590;28;20036;-61
2023/05/31 06:51:22;;;;;;;12.20;5.03;;;15.10;99.90;;;;;;5113706;28;20519;-61
2023/05/31 06:53:48;;;;;;;14.65;5.00;;;15.10;99.90;;;;;;5111140;28;20084;-61
2023/05/31 06:56:14;;;;;;;8.75;4.30;;;15.20;99.90;;;;;;5112238;28;20051;-61
2023/05/31 06:58:41;;;;;;;10.85;5.22;;;15.20;99.90;;;;;;5099182;28;20043;-61
2023/05/31 07:01:06;;;;;;;10.52;4.70;;;15.40;99.90;;;;;;5092410;28;20119;-61
2023/05/31 07:03:32;;;;;;;9.98;4.90;;;15.40;99.90;;;;;;5091770;28;20162;-61
2023/05/31 07:05:58;;;;;;;9.73;4.65;;;15.50;99.90;;;;;;5092779;28;20044;-61
2023/05/31 07:08:23;;;;;;;9.35;4.70;;;15.60;99.90;;;;;;5092343;28;20422;-61
2023/05/31 07:10:49;;;;;;;9.25;3.80;;;15.60;99.90;;;;;;5103074;28;20543;-61
2023/05/31 07:13:15;;;;;;;11.32;4.63;;;15.70;99.90;;;;;;5109465;28;20527;-61
2023/05/31 07:15:41;;;;;;;10.25;3.97;;;15.70;99.90;;;;;;5110028;28;20139;-61
2023/05/31 07:18:06;;;;;;;9.02;3.95;;;15.80;99.90;;;;;;5110392;28;20069;-61
2023/05/31 07:20:32;;;;;;;9.65;3.55;;;15.80;99.90;;;;;;5104416;28;20048;-61
2023/05/31 07:22:58;;;;;;;10.40;2.95;;;15.90;99.90;;;;;;5107963;28;20039;-61
2023/05/31 07:25:24;;;;;;;9.30;2.90;;;15.90;99.90;;;;;;5098955;28;20032;-61
2023/05/31 07:27:50;;;;;;;8.40;2.65;;;16.00;99.90;;;;;;5109314;28;20122;-61
2023/05/31 07:30:15;;;;;;;8.77;2.80;;;16.00;99.90;;;;;;5096964;28;20119;-61
2023/05/31 07:32:41;;;;;;;8.07;3.05;;;16.00;99.90;;;;;;5091595;28;20079;-61
2023/05/31 07:35:07;;;;;;;7.28;2.67;;;16.10;99.90;;;;;;5104117;28;20559;-61
2023/05/31 07:37:33;;;;;;;6.68;2.17;;;16.00;99.90;;;;;;5084022;28;20043;-61
2023/05/31 07:39:59;;;;;;;7.50;2.40;;;16.00;99.90;;;;;;5102387;28;20047;-61
2023/05/31 07:42:25;;;;;;;8.05;2.28;;;16.00;99.90;;;;;;5109893;28;20043;-61
2023/05/31 07:44:50;;;;;;;6.75;2.22;;;16.00;99.90;;;;;;5106338;28;20047;-61
2023/05/31 07:47:16;;;;;;;5.20;2.42;;;16.10;99.90;;;;;;5107844;27;20051;-61
2023/05/31 07:49:42;;;;;;;7.50;2.95;;;16.10;99.90;;;;;;5092650;28;20058;-61
2023/05/31 07:52:08;;;;;;;8.52;2.85;;;16.20;99.90;;;;;;5110472;28;20040;-60
2023/05/31 07:54:34;;;;;;;5.72;2.20;;;16.20;99.90;;;;;;5109857;28;20058;-60
2023/05/31 07:57:00;;;;;;;8.80;2.75;;;16.30;99.90;;;;;;5107054;28;20047;-60
2023/05/31 07:59:26;;;;;;;4.85;1.92;;;16.30;99.90;;;;;;5108664;28;20041;-61
2023/05/31 08:01:52;;;;;;;7.13;2.40;;;16.30;99.90;;;;;;5109629;28;20396;-61
2023/05/31 08:04:17;;;;;;;7.35;2.25;;;16.30;99.90;;;;;;5109576;28;20031;-61
2023/05/31 08:06:43;;;;;;;8.55;2.40;;;16.40;99.90;;;;;;5107467;28;20114;-61
2023/05/31 08:09:09;;;;;;;8.75;2.20;;;16.50;99.90;;;;;;5105107;28;20082;-61
2023/05/31 08:11:35;;;;;;;8.10;2.38;;;16.50;99.90;;;;;;5096235;28;20055;-61
2023/05/31 08:14:03;;;;;;;6.05;2.35;;;16.50;99.90;;;;;;5105038;28;20558;-61
2023/05/31 08:16:29;;;;;;;8.40;2.20;;;16.50;99.90;;;;;;5103659;28;20108;-61
2023/05/31 08:18:55;;;;;;;6.72;2.28;;;16.50;99.90;;;;;;5096887;28;20032;-61
2023/05/31 08:21:20;;;;;;;8.52;2.90;;;16.60;99.90;;;;;;5100362;28;20119;-62
2023/05/31 08:23:46;;;;;;;7.60;2.45;;;16.60;99.90;;;;;;5090845;28;20515;-61
2023/05/31 08:26:12;;;;;;;9.13;3.15;;;16.70;99.90;;;;;;5106267;28;20502;-61
2023/05/31 08:28:38;;;;;;;6.10;2.50;;;16.70;99.90;;;;;;5080447;28;20399;-60
2023/05/31 08:31:03;;;;;;;7.90;3.25;;;16.70;99.90;;;;;;5109125;28;20043;-61
2023/05/31 08:33:31;;;;;;;9.50;2.88;;;16.80;99.90;;;;;;5092495;28;20059;-61
2023/05/31 08:36:00;;;;;;;6.15;2.90;;;16.90;99.90;;;;;;5109543;28;20782;-61
2023/05/31 08:38:29;;;;;;;9.73;3.03;;;16.80;99.90;;;;;;5093541;28;20040;-61
2023/05/31 08:40:57;;;;;;;9.27;3.25;;;16.90;99.90;;;;;;5118922;28;20415;-60
2023/05/31 08:43:26;;;;;;;10.23;3.30;;;16.90;99.90;;;;;;5104471;28;20075;-61
2023/05/31 08:45:52;;;;;;;7.50;3.13;;;17.20;99.90;;;;;;5114471;28;20048;-60
2023/05/31 08:48:26;;;;;;;13.77;3.83;;;17.40;99.90;;;;;;5108185;28;20048;-61
2023/05/31 08:50:52;;;;;;;9.95;3.25;;;17.30;99.90;;;;;;5096747;28;20152;-60
2023/05/31 08:53:19;;;;;;;11.27;4.60;;;17.40;99.90;;;;;;5104631;28;20046;-61
2023/05/31 08:55:48;;;;;;;7.85;3.55;;;17.30;99.90;;;;;;5097053;28;20160;-61
2023/05/31 08:58:14;;;;;;;9.65;3.75;;;16.90;99.90;;;;;;5090803;28;20044;-60
2023/05/31 09:00:40;;;;;;;9.32;4.07;;;16.60;99.90;;;;;;5077887;28;20048;-60
2023/05/31 09:03:09;;;;;;;12.23;4.05;;;16.50;99.90;;;;;;5106680;28;20500;-60
2023/05/31 09:05:35;;;;;;;10.63;4.47;;;16.30;99.90;;;;;;5102069;28;20040;-61
2023/05/31 09:08:02;;;;;;;14.65;5.18;;;16.20;99.90;;;;;;5093100;28;20089;-60
2023/05/31 09:10:28;;;;;;;12.52;4.80;;;16.10;99.90;;;;;;5112936;28;20039;-60
2023/05/31 09:12:54;;;;;;;15.32;5.20;;;15.90;99.90;;;;;;5111055;28;20027;-60
2023/05/31 09:15:23;;;;;;;11.98;5.20;;;15.90;99.90;;;;;;5096452;28;20122;-60
2023/05/31 09:17:49;;;;;;;11.02;6.07;;;15.90;99.90;;;;;;5096685;28;20123;-60
2023/05/31 09:20:16;;;;;;;12.52;4.97;;;15.80;99.90;;;;;;5096221;28;20465;-60
2023/05/31 09:22:42;;;;;;;13.77;4.80;;;15.80;99.90;;;;;;5096035;28;20032;-60
2023/05/31 09:25:08;;;;;;;13.50;5.78;;;16.00;99.90;;;;;;5082952;28;20071;-60
2023/05/31 09:27:36;;;;;;;10.20;5.10;;;16.10;99.90;;;;;;5098042;28;20091;-61
2023/05/31 09:30:13;;;;;;;10.63;5.30;;;16.20;99.90;;;;;;5112760;28;20035;-60
2023/05/31 09:32:39;;;;;;;14.35;5.55;;;16.40;99.90;;;;;;5098685;28;20318;-61
2023/05/31 09:35:23;;;;;;;12.05;6.35;;;16.30;99.90;;;;;;5095375;28;20040;-60
2023/05/31 09:37:49;;;;;;;13.98;6.00;;;16.40;99.90;;;;;;5104082;28;20441;-61
2023/05/31 09:40:22;;;;;;;10.00;5.68;;;16.40;99.90;;;;;;5099914;28;20115;-61
2023/05/31 09:42:50;;;;;;;15.55;5.90;;;16.40;99.90;;;;;;5077846;28;20563;-61
2023/05/31 09:45:16;;;;;;;13.85;6.95;;;16.30;99.90;;;;;;5093856;28;20181;-61
2023/05/31 09:47:42;;;;;;;10.73;6.57;;;16.20;99.90;;;;;;5093576;28;20036;-61
2023/05/31 09:50:21;;;;;;;10.25;7.15;;;16.20;99.90;;;;;;5092823;28;20553;-61
2023/05/31 09:52:51;;;;;;;14.27;6.55;;;16.10;99.90;;;;;;5094450;28;20040;-61
2023/05/31 09:55:17;;;;;;;11.80;6.38;;;15.90;99.90;;;;;;5093313;28;20048;-61
2023/05/31 09:57:44;;;;;;;12.95;6.18;;;15.90;99.90;;;;;;5092514;28;20058;-61
2023/05/31 10:00:16;;;;;;;12.07;6.43;;;15.90;99.90;;;;;;5093100;28;20055;-61
2023/05/31 10:02:50;;;;;;;12.93;6.88;;;15.80;99.90;;;;;;5093062;28;20040;-61
2023/05/31 10:05:16;;;;;;;10.68;6.78;;;15.90;99.90;;;;;;5092563;28;20396;-61
2023/05/31 10:07:44;;;;;;;11.57;5.82;;;16.00;99.90;;;;;;5094391;28;20043;-61
2023/05/31 10:10:11;;;;;;;9.65;5.97;;;16.00;99.90;;;;;;5092071;28;20085;-61
2023/05/31 10:12:58;;;;;;;11.63;6.05;;;16.00;99.90;;;;;;5076043;28;20044;-61
2023/05/31 10:15:25;;;;;;;12.90;6.05;;;16.00;99.90;;;;;;5092842;28;20047;-61
2023/05/31 10:18:11;;;;;;;12.07;6.50;;;15.90;99.90;;;;;;5091943;28;20052;-60
2023/05/31 10:20:47;;;;;;;10.10;5.85;;;15.90;99.90;;;;;;5093338;28;20040;-61
2023/05/31 10:23:21;;;;;;;14.65;5.60;;;16.00;99.90;;;;;;5092648;28;20044;-61
2023/05/31 10:25:56;;;;;;;10.47;6.10;;;15.90;99.90;;;;;;5091767;28;20089;-61
2023/05/31 10:28:27;;;;;;;11.88;4.95;;;16.00;99.90;;;;;;5094078;28;20259;-61
2023/05/31 10:30:54;;;;;;;9.90;5.40;;;16.10;99.90;;;;;;5093966;28;20047;-60
2023/05/31 10:33:20;;;;;;;11.65;5.78;;;16.10;99.90;;;;;;5092979;28;20043;-61
2023/05/31 10:35:46;;;;;;;11.52;6.43;;;16.20;99.90;;;;;;5092393;28;20051;-61
2023/05/31 10:38:14;;;;;;;12.13;5.75;;;16.30;99.90;;;;;;5092769;28;20508;-61
2023/05/31 10:40:47;;;;;;;10.98;6.80;;;16.20;99.90;;;;;;5093243;28;20446;-61
2023/05/31 10:43:45;;;;;;;15.18;5.90;;;16.30;99.90;;;;;;5092369;28;20501;-61
2023/05/31 10:46:19;;;;;;;11.70;6.00;;;16.30;99.90;;;;;;5091743;28;20067;-61
2023/05/31 10:48:57;;;;;;;13.15;5.78;;;16.30;99.90;;;;;;5092131;28;20040;-61
2023/05/31 10:51:41;;;;;;;13.07;5.72;;;16.40;99.90;;;;;;5093584;28;20036;-61
2023/05/31 10:54:07;;;;;;;13.80;5.43;;;16.50;99.90;;;;;;5092819;28;20509;-61
2023/05/31 10:56:36;;;;;;;8.52;5.28;;;16.40;99.90;;;;;;5091944;28;20511;-61
2023/05/31 10:59:03;;;;;;;8.40;5.20;;;16.40;99.90;;;;;;5092309;28;20086;-61
2023/05/31 11:01:30;;;;;;;11.13;5.07;;;16.40;99.90;;;;;;5091358;28;20443;-61
2023/05/31 11:04:01;;;;;;;10.13;4.90;;;16.40;99.90;;;;;;5091852;28;20043;-61
2023/05/31 11:06:32;;;;;;;12.60;4.63;;;16.50;99.90;;;;;;5091084;28;20065;-61
2023/05/31 11:09:11;;;;;;;11.00;4.40;;;16.60;99.90;;;;;;5093005;28;20044;-61
2023/05/31 11:11:39;;;;;;;10.23;4.25;;;16.70;99.90;;;;;;5091755;28;20079;-61
2023/05/31 11:14:26;;;;;;;8.32;4.43;;;16.80;99.90;;;;;;5091383;28;20129;-61
2023/05/31 11:16:59;;;;;;;12.82;5.03;;;16.90;99.90;;;;;;5091392;28;20036;-61
2023/05/31 11:19:36;;;;;;;12.30;5.47;;;16.80;99.90;;;;;;5091592;28;20040;-61
2023/05/31 11:22:08;;;;;;;14.55;5.90;;;17.00;99.90;;;;;;5073933;28;20078;-61
2023/05/31 11:24:37;;;;;;;13.60;5.82;;;17.00;99.90;;;;;;5091741;28;20040;-61
2023/05/31 11:27:11;;;;;;;10.50;5.65;;;16.90;99.90;;;;;;5093240;28;20040;-61
2023/05/31 11:29:48;;;;;;;10.20;5.90;;;17.00;99.90;;;;;;5092256;28;20122;-61
2023/05/31 11:32:15;;;;;;;9.50;5.22;;;17.10;99.90;;;;;;5074375;28;20040;-61
2023/05/31 11:34:58;;;;;;;11.18;5.35;;;17.20;99.90;;;;;;5090497;28;20080;-61
2023/05/31 11:37:28;;;;;;;9.43;5.72;;;17.10;99.90;;;;;;5091480;28;20501;-61
2023/05/31 11:39:55;;;;;;;12.10;5.85;;;17.20;99.90;;;;;;5091232;28;20036;-61
2023/05/31 11:42:23;;;;;;;9.48;6.07;;;17.20;99.90;;;;;;5091583;28;20469;-61
2023/05/31 11:44:50;;;;;;;12.18;6.68;;;17.10;99.90;;;;;;5091002;28;20509;-61
2023/05/31 11:47:20;;;;;;;12.85;5.95;;;17.20;99.90;;;;;;5090958;28;20032;-61
2023/05/31 11:49:47;;;;;;;8.80;5.60;;;17.10;99.90;;;;;;5090215;28;20048;-61
2023/05/31 11:52:17;;;;;;;10.07;5.70;;;17.10;99.90;;;;;;5092413;28;20057;-61
2023/05/31 11:54:45;;;;;;;10.00;6.00;;;17.20;99.90;;;;;;5092354;28;20048;-61
2023/05/31 11:57:11;;;;;;;15.07;6.72;;;17.20;99.90;;;;;;5073452;28;20044;-61
2023/05/31 11:59:39;;;;;;;10.88;6.00;;;17.20;99.90;;;;;;5091032;28;20044;-61
2023/05/31 12:02:06;;;;;;;14.40;6.20;;;17.20;99.90;;;;;;5091572;28;20036;-61
2023/05/31 12:04:32;;;;;;;13.50;7.60;;;17.20;99.90;;;;;;5073177;28;20036;-62
2023/05/31 12:06:58;;;;;;;9.30;6.75;;;17.20;99.90;;;;;;5091112;28;20388;-61
2023/05/31 12:09:25;;;;;;;12.40;8.18;;;17.30;99.90;;;;;;5091208;28;20391;-62
2023/05/31 12:11:52;;;;;;;11.27;6.70;;;17.20;99.90;;;;;;5091391;28;20369;-62
2023/05/31 12:14:18;;;;;;;10.57;7.70;;;17.30;99.90;;;;;;5090752;28;20112;-62
2023/05/31 12:16:48;;;;;;;13.23;7.90;;;17.30;99.90;;;;;;5090002;28;20456;-61
2023/05/31 12:19:14;;;;;;;10.40;6.22;;;17.30;99.90;;;;;;5090549;28;20042;-62
2023/05/31 12:21:40;;;;;;;11.57;6.78;;;17.30;99.90;;;;;;5073850;28;20036;-62
2023/05/31 12:24:15;;;;;;;11.60;5.68;;;17.30;99.90;;;;;;5090341;28;20093;-61
2023/05/31 12:26:43;;;;;;;8.80;5.63;;;17.30;99.90;;;;;;5091923;28;20543;-62
2023/05/31 12:29:10;;;;;;;9.60;5.82;;;17.30;99.90;;;;;;5090816;28;20048;-62
2023/05/31 12:31:37;;;;;;;10.30;5.63;;;17.30;99.90;;;;;;5091376;28;20481;-62
2023/05/31 12:34:07;;;;;;;10.77;5.85;;;17.50;99.90;;;;;;5090848;28;20052;-62
2023/05/31 12:36:37;;;;;;;10.18;5.53;;;17.70;99.90;;;;;;5090860;28;20374;-62
2023/05/31 12:39:11;;;;;;;9.07;5.40;;;17.60;99.90;;;;;;5091380;28;20504;-62
2023/05/31 12:41:38;;;;;;;10.68;5.22;;;17.60;99.90;;;;;;5090639;28;20075;-62
2023/05/31 12:44:05;;;;;;;9.70;6.03;;;17.70;99.90;;;;;;5095362;28;20056;-62
2023/05/31 12:46:41;;;;;;;9.23;5.57;;;17.70;99.90;;;;;;5077064;28;20047;-62